Time;durP1;ratioP1;P1;durP2;ratioP2;P2;SDS_P1;SDS_P2;PMS_P1;PMS_P2;Temp;Humidity;BMP_temperature;BMP_pressure;BME280_temperature;BME280_humidity;BME280_pressure;Samples;Min_cycle;Max_cycle;Signal;HPM_P1;HPM_P2
2022/03/02 00:00:50;;;;;;;13.63;2.30;;;21.20;99.90;;;;;;4972206;28;20041;-73
2022/03/02 00:03:17;;;;;;;14.43;1.90;;;21.00;99.90;;;;;;4972041;28;20506;-73
2022/03/02 00:05:45;;;;;;;11.63;2.00;;;20.90;99.90;;;;;;4970766;28;20073;-73
2022/03/02 00:08:12;;;;;;;11.25;2.00;;;20.80;99.90;;;;;;4971828;28;20029;-74
2022/03/02 00:10:39;;;;;;;16.35;1.95;;;20.70;99.90;;;;;;4972020;28;20031;-72
2022/03/02 00:13:10;;;;;;;18.50;2.65;;;20.70;99.90;;;;;;4972341;28;20034;-73
2022/03/02 00:15:38;;;;;;;23.35;3.13;;;20.70;99.90;;;;;;4971179;28;20109;-71
2022/03/02 00:18:05;;;;;;;25.35;4.03;;;20.70;99.90;;;;;;4974446;28;20603;-73
2022/03/02 00:20:33;;;;;;;21.92;2.67;;;20.80;99.90;;;;;;4975658;28;20029;-73
2022/03/02 00:23:00;;;;;;;22.60;3.40;;;20.80;99.90;;;;;;4975639;28;20041;-72
2022/03/02 00:25:28;;;;;;;23.10;2.63;;;20.90;99.90;;;;;;4975885;28;20034;-72
2022/03/02 00:27:55;;;;;;;23.08;3.75;;;20.90;99.90;;;;;;4975626;28;20109;-73
2022/03/02 00:30:23;;;;;;;26.15;4.10;;;20.80;99.90;;;;;;4975655;28;20067;-73
2022/03/02 00:32:51;;;;;;;29.77;5.00;;;20.80;99.90;;;;;;4975338;28;20078;-72
2022/03/02 00:35:18;;;;;;;24.23;3.75;;;20.90;99.90;;;;;;4975713;28;20057;-71
2022/03/02 00:37:46;;;;;;;32.33;4.90;;;21.00;99.90;;;;;;4975777;28;20082;-72
2022/03/02 00:40:14;;;;;;;28.65;4.82;;;21.00;99.90;;;;;;4975570;28;20066;-73
2022/03/02 00:42:43;;;;;;;31.20;5.80;;;21.10;99.90;;;;;;4975402;28;20027;-71
2022/03/02 00:45:11;;;;;;;37.53;6.10;;;21.20;99.90;;;;;;4973389;28;20110;-71
2022/03/02 00:47:40;;;;;;;30.63;5.93;;;21.20;99.90;;;;;;4974528;28;20025;-72
2022/03/02 00:50:08;;;;;;;31.70;5.03;;;21.30;99.90;;;;;;4973234;28;20027;-71
2022/03/02 00:52:36;;;;;;;25.83;3.08;;;21.20;99.90;;;;;;4973979;28;20030;-74
2022/03/02 00:55:04;;;;;;;16.38;2.20;;;21.20;99.90;;;;;;4973777;28;20478;-72
2022/03/02 00:57:31;;;;;;;21.38;3.25;;;20.90;99.90;;;;;;4975049;28;20713;-71
2022/03/02 00:59:59;;;;;;;14.95;2.38;;;20.90;99.90;;;;;;4975011;28;20070;-73
2022/03/02 01:02:27;;;;;;;16.13;2.47;;;20.90;99.90;;;;;;4973865;28;20095;-73
2022/03/02 01:04:54;;;;;;;14.68;1.90;;;20.70;99.90;;;;;;4973250;28;20438;-74
2022/03/02 01:07:21;;;;;;;11.45;2.88;;;20.60;99.90;;;;;;4974539;28;20022;-71
2022/03/02 01:09:49;;;;;;;11.05;2.38;;;20.60;99.90;;;;;;4975079;28;20541;-71
2022/03/02 01:12:16;;;;;;;12.27;3.00;;;20.50;99.90;;;;;;4973895;28;20069;-71
2022/03/02 01:14:43;;;;;;;14.27;2.65;;;20.60;99.90;;;;;;4974682;28;20026;-71
2022/03/02 01:17:11;;;;;;;14.90;2.28;;;20.60;99.90;;;;;;4974981;28;20030;-71
2022/03/02 01:19:39;;;;;;;15.77;2.72;;;20.70;99.90;;;;;;4973709;28;20042;-70
2022/03/02 01:22:07;;;;;;;16.80;2.95;;;20.70;99.90;;;;;;4973493;28;20051;-72
2022/03/02 01:24:35;;;;;;;18.33;3.08;;;20.80;99.90;;;;;;4974517;28;20031;-73
2022/03/02 01:27:03;;;;;;;19.23;4.13;;;21.00;99.90;;;;;;4973431;28;20475;-71
2022/03/02 01:29:34;;;;;;;24.98;4.05;;;21.10;99.90;;;;;;4974629;28;20037;-71
2022/03/02 01:32:06;;;;;;;12.13;1.88;;;21.20;99.90;;;;;;4974501;28;20027;-72
2022/03/02 01:34:34;;;;;;;14.80;1.88;;;21.20;99.90;;;;;;4974645;28;20102;-71
2022/03/02 01:37:01;;;;;;;9.95;1.73;;;21.20;99.90;;;;;;4974295;28;20038;-70
2022/03/02 01:39:29;;;;;;;12.52;2.28;;;21.10;99.90;;;;;;4974349;28;20058;-71
2022/03/02 01:41:56;;;;;;;10.45;2.17;;;21.20;99.90;;;;;;4974521;28;20546;-72
2022/03/02 01:44:24;;;;;;;15.63;3.35;;;21.20;99.90;;;;;;4973362;28;20480;-70
2022/03/02 01:46:51;;;;;;;17.83;2.83;;;21.30;99.90;;;;;;4973002;28;20027;-71
2022/03/02 01:49:18;;;;;;;13.50;3.25;;;21.30;99.90;;;;;;4974028;28;20031;-71
2022/03/02 01:51:46;;;;;;;18.85;3.83;;;21.40;99.90;;;;;;4972246;28;20074;-72
2022/03/02 01:54:13;;;;;;;16.35;2.97;;;21.40;99.90;;;;;;4973405;28;20023;-72
2022/03/02 01:56:40;;;;;;;18.20;3.90;;;21.40;99.90;;;;;;4974131;28;20027;-72
2022/03/02 01:59:08;;;;;;;14.15;3.13;;;21.30;99.90;;;;;;4972766;28;20046;-71
2022/03/02 02:01:35;;;;;;;17.55;2.53;;;21.20;99.90;;;;;;4974395;28;20027;-71
2022/03/02 02:04:04;;;;;;;18.35;3.17;;;21.20;99.90;;;;;;4972771;28;20031;-71
2022/03/02 02:06:32;;;;;;;16.67;3.75;;;21.30;99.90;;;;;;4973751;28;20061;-72
2022/03/02 02:09:00;;;;;;;22.85;3.70;;;21.40;99.90;;;;;;4973524;28;20031;-71
2022/03/02 02:11:30;;;;;;;18.65;3.78;;;21.50;99.90;;;;;;4973664;28;20050;-72
2022/03/02 02:13:57;;;;;;;18.20;3.75;;;21.60;99.90;;;;;;4973797;28;20035;-71
2022/03/02 02:16:25;;;;;;;21.10;4.38;;;21.60;99.90;;;;;;4973490;28;20110;-71
2022/03/02 02:18:54;;;;;;;21.77;3.92;;;21.60;99.90;;;;;;4973609;28;20055;-70
2022/03/02 02:21:23;;;;;;;21.38;3.75;;;21.60;99.90;;;;;;4973134;28;20019;-71
2022/03/02 02:23:50;;;;;;;25.48;4.40;;;21.70;99.90;;;;;;4973092;28;20446;-70
2022/03/02 02:26:21;;;;;;;26.33;4.32;;;21.80;99.90;;;;;;4973314;28;20034;-71
2022/03/02 02:28:49;;;;;;;17.70;3.70;;;22.00;99.90;;;;;;4973635;28;20031;-71
2022/03/02 02:31:17;;;;;;;24.80;3.50;;;22.00;99.90;;;;;;4972036;28;20029;-70
2022/03/02 02:33:44;;;;;;;19.00;3.08;;;22.10;99.90;;;;;;4973137;28;20374;-71
2022/03/02 02:36:12;;;;;;;23.67;4.03;;;22.10;99.90;;;;;;4973382;28;20085;-71
2022/03/02 02:38:41;;;;;;;16.88;2.90;;;22.10;99.90;;;;;;4972617;28;20023;-71
2022/03/02 02:41:09;;;;;;;19.50;4.47;;;22.00;99.90;;;;;;4971940;28;20553;-70
2022/03/02 02:43:42;;;;;;;26.00;4.45;;;22.00;99.90;;;;;;4972547;28;20419;-72
2022/03/02 02:46:10;;;;;;;30.92;5.78;;;22.00;99.90;;;;;;4973170;28;20109;-72
2022/03/02 02:48:39;;;;;;;19.52;3.17;;;22.10;99.90;;;;;;4972028;28;20027;-70
2022/03/02 02:51:07;;;;;;;18.85;2.90;;;22.10;99.90;;;;;;4973292;28;20047;-71
2022/03/02 02:53:35;;;;;;;20.35;3.45;;;22.10;99.90;;;;;;4973255;28;20031;-71
2022/03/02 02:56:03;;;;;;;14.10;2.20;;;22.00;99.90;;;;;;4971738;28;20383;-71
2022/03/02 02:58:30;;;;;;;14.65;3.33;;;22.10;99.90;;;;;;4972774;28;20545;-71
2022/03/02 03:00:57;;;;;;;16.63;3.65;;;22.00;99.90;;;;;;4972773;28;20158;-71
2022/03/02 03:03:25;;;;;;;16.80;2.20;;;22.00;99.90;;;;;;4972878;28;20526;-71
2022/03/02 03:05:52;;;;;;;13.40;2.13;;;22.00;99.90;;;;;;4972935;28;20114;-71
2022/03/02 03:08:20;;;;;;;15.15;2.10;;;21.90;99.90;;;;;;4972612;28;20475;-72
2022/03/02 03:10:47;;;;;;;20.58;3.97;;;21.80;99.90;;;;;;4972790;28;20056;-72
2022/03/02 03:13:16;;;;;;;13.13;2.80;;;21.70;99.90;;;;;;4972605;28;20082;-72
2022/03/02 03:15:44;;;;;;;17.83;2.55;;;21.60;99.90;;;;;;4972914;28;20023;-72
2022/03/02 03:18:11;;;;;;;19.27;3.20;;;21.60;99.90;;;;;;4972707;28;20023;-73
2022/03/02 03:20:42;;;;;;;17.63;3.78;;;21.60;99.90;;;;;;4973106;28;20034;-74
2022/03/02 03:23:11;;;;;;;21.65;4.28;;;21.60;99.90;;;;;;4972942;28;20025;-72
2022/03/02 03:25:42;;;;;;;23.30;4.32;;;21.70;99.90;;;;;;4971051;28;20027;-72
2022/03/02 03:28:09;;;;;;;24.58;4.57;;;21.60;99.90;;;;;;4971927;28;20046;-71
2022/03/02 03:30:37;;;;;;;28.52;5.32;;;21.70;99.90;;;;;;4972436;28;20031;-70
2022/03/02 03:33:04;;;;;;;23.35;4.63;;;21.70;99.90;;;;;;4972873;28;20435;-70
2022/03/02 03:35:32;;;;;;;18.60;2.65;;;21.70;99.90;;;;;;4972223;28;20023;-71
2022/03/02 03:37:59;;;;;;;29.17;4.07;;;21.60;99.90;;;;;;4971973;28;20026;-70
2022/03/02 03:40:27;;;;;;;21.15;3.85;;;21.50;99.90;;;;;;4972013;28;20035;-72
2022/03/02 03:42:55;;;;;;;20.90;5.40;;;21.50;99.90;;;;;;4972377;28;20022;-69
2022/03/02 03:45:22;;;;;;;27.08;5.75;;;21.50;99.90;;;;;;4972589;28;20062;-70
2022/03/02 03:47:50;;;;;;;37.13;5.05;;;21.40;99.90;;;;;;4972175;28;20015;-71
2022/03/02 03:50:19;;;;;;;35.78;5.45;;;21.40;99.90;;;;;;4972514;28;20022;-70
2022/03/02 03:52:47;;;;;;;31.05;5.32;;;21.40;99.90;;;;;;4976119;28;20031;-69
2022/03/02 03:55:15;;;;;;;25.15;5.07;;;21.50;99.90;;;;;;4974448;28;20037;-71
2022/03/02 03:57:43;;;;;;;36.78;6.35;;;21.50;99.90;;;;;;4974423;28;20411;-70
2022/03/02 04:00:15;;;;;;;32.10;5.75;;;21.50;99.90;;;;;;4976222;28;20524;-72
2022/03/02 04:02:43;;;;;;;28.10;4.72;;;21.60;99.90;;;;;;4975111;28;20118;-70
2022/03/02 04:05:14;;;;;;;24.85;4.78;;;21.60;99.90;;;;;;4976401;28;20030;-70
2022/03/02 04:07:41;;;;;;;34.30;5.07;;;21.60;99.90;;;;;;4974618;28;20023;-71
2022/03/02 04:10:10;;;;;;;28.02;5.65;;;21.70;99.90;;;;;;4974719;28;20074;-70
2022/03/02 04:12:37;;;;;;;33.08;6.32;;;21.70;99.90;;;;;;4975297;28;20018;-70
2022/03/02 04:15:06;;;;;;;29.70;5.32;;;21.70;99.90;;;;;;4975851;28;20019;-70
2022/03/02 04:17:33;;;;;;;26.45;5.05;;;21.70;99.90;;;;;;4975978;28;20023;-70
2022/03/02 04:20:01;;;;;;;32.70;6.45;;;21.70;99.90;;;;;;4975475;28;20066;-72
2022/03/02 04:22:28;;;;;;;23.95;5.70;;;21.70;99.90;;;;;;4975199;28;20019;-70
2022/03/02 04:24:56;;;;;;;26.98;5.22;;;21.70;99.90;;;;;;4975145;28;20029;-70
2022/03/02 04:27:23;;;;;;;29.77;5.72;;;21.70;99.90;;;;;;4974104;28;20034;-73
2022/03/02 04:29:50;;;;;;;26.27;4.68;;;21.60;99.90;;;;;;4972558;28;20034;-73
2022/03/02 04:32:18;;;;;;;32.67;5.35;;;21.60;99.90;;;;;;4972912;28;20033;-70
2022/03/02 04:34:45;;;;;;;20.52;4.85;;;21.60;99.90;;;;;;4975472;28;20031;-71
2022/03/02 04:37:12;;;;;;;28.75;5.55;;;21.70;99.90;;;;;;4974946;28;20106;-70
2022/03/02 04:39:40;;;;;;;25.60;5.45;;;21.60;99.90;;;;;;4975614;28;20038;-71
2022/03/02 04:42:07;;;;;;;28.10;5.40;;;21.60;99.90;;;;;;4975179;28;20027;-70
2022/03/02 04:44:35;;;;;;;24.88;4.88;;;21.70;99.90;;;;;;4974867;28;20042;-72
2022/03/02 04:47:02;;;;;;;33.83;5.30;;;21.70;99.90;;;;;;4974864;28;20030;-70
2022/03/02 04:49:30;;;;;;;30.20;5.20;;;21.60;99.90;;;;;;4969495;28;20027;-72
2022/03/02 04:51:57;;;;;;;28.55;4.75;;;21.70;99.90;;;;;;4969753;28;20066;-73
2022/03/02 04:57:10;;;;;;;33.30;5.30;;;21.60;99.90;;;;;;4972898;28;20045;-70
2022/03/02 04:59:37;;;;;;;30.98;5.38;;;21.50;99.90;;;;;;4972435;28;20045;-72
2022/03/02 05:02:05;;;;;;;23.67;3.95;;;21.50;99.90;;;;;;4969455;28;20031;-72
2022/03/02 05:04:32;;;;;;;25.33;4.38;;;21.40;99.90;;;;;;4953837;29;20090;-71
2022/03/02 05:06:59;;;;;;;28.40;5.25;;;21.50;99.90;;;;;;4966127;28;20479;-72
2022/03/02 05:09:27;;;;;;;22.05;4.35;;;21.50;99.90;;;;;;4970632;28;20027;-70
2022/03/02 05:11:54;;;;;;;31.48;5.88;;;21.50;99.90;;;;;;4972813;28;20023;-72
2022/03/02 05:14:24;;;;;;;33.88;5.30;;;21.50;99.90;;;;;;4974256;28;20023;-72
2022/03/02 05:16:52;;;;;;;27.13;4.82;;;21.50;99.90;;;;;;4973563;28;20050;-72
2022/03/02 05:19:19;;;;;;;23.63;3.15;;;21.50;99.90;;;;;;4973940;28;20105;-72
2022/03/02 05:21:47;;;;;;;38.75;5.53;;;21.50;99.90;;;;;;4974209;28;20027;-71
2022/03/02 05:24:15;;;;;;;32.90;4.85;;;21.40;99.90;;;;;;4974509;28;20066;-71
2022/03/02 05:26:43;;;;;;;19.23;4.13;;;21.40;99.90;;;;;;4973643;28;20023;-71
2022/03/02 05:29:10;;;;;;;24.58;3.75;;;21.40;99.90;;;;;;4973178;28;20069;-72
2022/03/02 05:31:38;;;;;;;20.65;3.33;;;21.40;99.90;;;;;;4974326;28;20027;-69
2022/03/02 05:34:06;;;;;;;25.08;4.32;;;21.40;99.90;;;;;;4974098;28;20058;-70
2022/03/02 05:36:33;;;;;;;27.23;4.03;;;21.40;99.90;;;;;;4973515;28;20027;-71
2022/03/02 05:39:00;;;;;;;18.50;3.38;;;21.30;99.90;;;;;;4972421;28;20094;-71
2022/03/02 05:41:28;;;;;;;18.48;2.88;;;21.30;99.90;;;;;;4970683;28;20114;-71
2022/03/02 05:43:55;;;;;;;18.77;3.67;;;21.40;99.90;;;;;;4972799;28;20030;-70
2022/03/02 05:46:22;;;;;;;21.92;4.07;;;21.30;99.90;;;;;;4973248;28;20019;-70
2022/03/02 05:48:52;;;;;;;22.13;4.70;;;21.30;99.90;;;;;;4972359;28;20071;-71
2022/03/02 05:51:20;;;;;;;24.30;4.43;;;21.40;99.90;;;;;;4973625;28;20403;-72
2022/03/02 05:53:48;;;;;;;24.27;4.18;;;21.30;99.90;;;;;;4973850;28;20023;-71
2022/03/02 05:56:15;;;;;;;26.67;3.65;;;21.30;99.90;;;;;;4973068;28;20019;-72
2022/03/02 05:58:42;;;;;;;29.52;4.82;;;21.40;99.90;;;;;;4973093;28;20029;-71
2022/03/02 06:01:10;;;;;;;24.83;4.68;;;21.40;99.90;;;;;;4973311;28;20106;-72
2022/03/02 06:03:37;;;;;;;24.58;3.45;;;21.40;99.90;;;;;;4973848;28;20467;-72
2022/03/02 06:06:05;;;;;;;23.27;4.00;;;21.40;99.90;;;;;;4973410;28;20033;-72
2022/03/02 06:08:32;;;;;;;26.33;4.18;;;21.40;99.90;;;;;;4971751;28;20480;-71
2022/03/02 06:11:00;;;;;;;28.25;4.40;;;21.40;99.90;;;;;;4973069;28;20026;-70
2022/03/02 06:13:27;;;;;;;26.33;4.47;;;21.50;99.90;;;;;;4972573;28;20023;-71
2022/03/02 06:15:55;;;;;;;29.67;6.65;;;21.40;99.90;;;;;;4973092;28;20102;-70
2022/03/02 06:18:22;;;;;;;20.02;4.18;;;21.50;99.90;;;;;;4972137;28;20546;-72
2022/03/02 06:20:52;;;;;;;29.08;5.05;;;21.50;99.90;;;;;;4973362;28;20419;-72
2022/03/02 06:23:22;;;;;;;24.45;5.70;;;21.50;99.90;;;;;;4972465;28;20026;-71
2022/03/02 06:25:50;;;;;;;22.42;5.45;;;21.60;99.90;;;;;;4972719;28;20029;-70
2022/03/02 06:28:17;;;;;;;22.65;7.18;;;21.60;99.90;;;;;;4970019;28;20420;-72
2022/03/02 06:30:44;;;;;;;34.13;5.25;;;21.50;99.90;;;;;;4973167;28;20027;-70
2022/03/02 06:33:15;;;;;;;25.85;5.35;;;21.50;99.90;;;;;;4988250;28;20027;-70
2022/03/02 06:35:51;;;;;;;26.98;4.70;;;21.50;99.90;;;;;;5128913;27;20831;-70
2022/03/02 06:38:20;;;;;;;32.15;4.45;;;21.60;99.90;;;;;;5120255;28;21081;-69
2022/03/02 06:41:04;;;;;;;30.45;5.28;;;21.60;99.90;;;;;;5108386;28;20020;-69
2022/03/02 06:44:07;;;;;;;30.98;5.53;;;21.60;99.90;;;;;;5108604;28;20081;-70
2022/03/02 06:46:55;;;;;;;24.27;4.97;;;21.60;99.90;;;;;;5093875;28;20480;-71
2022/03/02 06:49:54;;;;;;;26.33;5.47;;;21.50;99.90;;;;;;5087996;28;20021;-70
2022/03/02 06:52:24;;;;;;;30.35;4.25;;;21.50;99.90;;;;;;5084705;28;20043;-70
2022/03/02 06:54:51;;;;;;;28.77;4.93;;;21.50;99.90;;;;;;5088135;28;20032;-71
2022/03/02 06:57:24;;;;;;;26.98;5.45;;;21.50;99.90;;;;;;5103160;28;20016;-68
2022/03/02 06:59:53;;;;;;;23.90;4.63;;;21.50;99.90;;;;;;5108314;28;20046;-71
2022/03/02 07:02:39;;;;;;;26.95;5.32;;;21.60;99.90;;;;;;5108647;28;20031;-69
2022/03/02 07:05:10;;;;;;;22.15;4.47;;;21.50;99.90;;;;;;5108145;28;20589;-70
2022/03/02 07:07:38;;;;;;;18.63;5.20;;;21.40;99.90;;;;;;5108189;28;20074;-70
2022/03/02 07:10:08;;;;;;;16.55;3.35;;;21.30;99.90;;;;;;5108379;28;20551;-71
2022/03/02 07:12:36;;;;;;;20.58;4.75;;;21.20;99.90;;;;;;5107437;28;20028;-69
2022/03/02 07:15:05;;;;;;;16.00;3.92;;;21.10;99.90;;;;;;5108002;28;20554;-71
2022/03/02 07:17:32;;;;;;;16.85;3.72;;;21.10;99.90;;;;;;5107659;28;20555;-70
2022/03/02 07:20:01;;;;;;;22.13;4.00;;;21.10;99.90;;;;;;5106510;28;20024;-70
2022/03/02 07:22:34;;;;;;;23.48;4.53;;;21.10;99.90;;;;;;5104644;28;20012;-71
2022/03/02 07:25:13;;;;;;;24.15;5.28;;;21.10;99.90;;;;;;5108275;28;20472;-70
2022/03/02 07:27:41;;;;;;;24.33;4.93;;;21.10;99.90;;;;;;5107850;28;20115;-71
2022/03/02 07:30:09;;;;;;;28.65;5.90;;;21.20;99.90;;;;;;5108037;28;20095;-69
2022/03/02 07:32:41;;;;;;;23.58;5.72;;;21.20;99.90;;;;;;5107233;28;20023;-70
2022/03/02 07:35:09;;;;;;;25.15;6.10;;;21.20;99.90;;;;;;5107383;28;20044;-70
2022/03/02 07:37:37;;;;;;;28.25;7.70;;;21.20;99.90;;;;;;5107483;28;20024;-71
2022/03/02 07:40:06;;;;;;;29.83;7.75;;;21.20;99.90;;;;;;5087331;28;20099;-70
2022/03/02 07:42:34;;;;;;;24.88;6.25;;;21.20;99.90;;;;;;5087081;28;20021;-72
2022/03/02 07:45:02;;;;;;;30.52;5.60;;;21.10;99.90;;;;;;5086395;28;20107;-70
2022/03/02 07:47:29;;;;;;;21.55;4.82;;;21.10;99.90;;;;;;5090269;28;20024;-70
2022/03/02 07:49:57;;;;;;;29.27;5.47;;;21.10;99.90;;;;;;5093785;28;20559;-69
2022/03/02 07:52:28;;;;;;;31.88;6.72;;;21.00;99.90;;;;;;5093999;28;20016;-69
2022/03/02 07:54:58;;;;;;;23.80;4.72;;;21.10;99.90;;;;;;5094023;28;20034;-70
2022/03/02 07:57:29;;;;;;;26.30;4.60;;;21.00;99.90;;;;;;5093592;28;20032;-70
2022/03/02 07:59:58;;;;;;;30.95;6.00;;;21.00;99.90;;;;;;5093930;28;20114;-69
2022/03/02 08:02:29;;;;;;;31.75;6.88;;;21.00;99.90;;;;;;5075596;28;20020;-69
2022/03/02 08:04:57;;;;;;;21.48;5.88;;;21.00;99.90;;;;;;5093700;28;20024;-70
2022/03/02 08:07:25;;;;;;;25.52;6.53;;;21.00;99.90;;;;;;5093323;28;20023;-70
2022/03/02 08:09:52;;;;;;;31.10;8.10;;;20.90;99.90;;;;;;5093606;28;20028;-70
2022/03/02 08:12:24;;;;;;;31.60;6.88;;;21.00;99.90;;;;;;5094120;28;20020;-72
2022/03/02 08:14:53;;;;;;;39.85;6.43;;;21.00;99.90;;;;;;5093957;28;20028;-72
2022/03/02 08:17:21;;;;;;;17.13;4.07;;;21.00;99.90;;;;;;5092617;28;20028;-72
2022/03/02 08:19:48;;;;;;;15.27;2.90;;;20.90;99.90;;;;;;5079474;28;20032;-72
2022/03/02 08:22:23;;;;;;;16.98;3.55;;;20.80;99.90;;;;;;5093824;28;20077;-71
2022/03/02 08:25:07;;;;;;;20.08;3.65;;;20.70;99.90;;;;;;5075308;28;20036;-72
2022/03/02 08:27:37;;;;;;;20.10;3.92;;;20.60;99.90;;;;;;5091440;28;20637;-70
2022/03/02 08:30:06;;;;;;;19.05;4.90;;;20.60;99.90;;;;;;5074875;28;20032;-71
2022/03/02 08:32:42;;;;;;;26.92;4.65;;;20.50;99.90;;;;;;5093859;28;20480;-71
2022/03/02 08:35:10;;;;;;;30.38;5.50;;;20.40;99.90;;;;;;5093324;28;20048;-73
2022/03/02 08:37:39;;;;;;;24.80;6.25;;;20.40;99.90;;;;;;5075727;28;20047;-76
2022/03/02 08:40:07;;;;;;;33.83;6.78;;;20.40;99.90;;;;;;5093307;28;20016;-69
2022/03/02 08:42:35;;;;;;;29.85;6.47;;;20.40;99.90;;;;;;5092486;28;20023;-73
2022/03/02 08:45:04;;;;;;;25.80;5.18;;;20.40;99.90;;;;;;5091933;28;20072;-72
2022/03/02 08:47:32;;;;;;;26.27;6.05;;;20.40;99.90;;;;;;5092445;28;20016;-72
2022/03/02 08:49:59;;;;;;;25.45;5.22;;;20.50;99.90;;;;;;5093203;28;20106;-72
2022/03/02 08:52:29;;;;;;;38.25;6.28;;;20.50;99.90;;;;;;5093558;28;20028;-73
2022/03/02 08:54:56;;;;;;;30.75;5.65;;;20.50;99.90;;;;;;5091009;28;20032;-71
2022/03/02 08:57:24;;;;;;;28.08;5.25;;;20.50;99.90;;;;;;5090392;28;20384;-72
2022/03/02 08:59:56;;;;;;;30.15;5.35;;;20.50;99.90;;;;;;5073244;28;20032;-73
2022/03/02 09:02:24;;;;;;;33.20;7.10;;;20.60;99.90;;;;;;5088430;28;20383;-74
2022/03/02 09:04:54;;;;;;;29.90;6.25;;;20.60;99.90;;;;;;5091984;28;20016;-75
2022/03/02 09:07:22;;;;;;;24.40;4.65;;;20.60;99.90;;;;;;5092879;28;20028;-73
2022/03/02 09:09:50;;;;;;;28.63;6.32;;;20.60;99.90;;;;;;5091292;28;20020;-74
2022/03/02 09:12:18;;;;;;;31.70;5.80;;;20.50;99.90;;;;;;5092431;28;20032;-73
2022/03/02 09:14:47;;;;;;;28.20;5.55;;;20.50;99.90;;;;;;5091138;28;20043;-72
2022/03/02 09:17:28;;;;;;;35.40;5.45;;;20.40;99.90;;;;;;5092882;28;20020;-72
2022/03/02 09:19:57;;;;;;;35.30;6.25;;;20.30;99.90;;;;;;5092727;28;20020;-73
2022/03/02 09:22:26;;;;;;;24.83;4.97;;;20.40;99.90;;;;;;5092526;28;20024;-73
2022/03/02 09:24:54;;;;;;;35.25;5.95;;;20.30;99.90;;;;;;5092401;28;20036;-75
2022/03/02 09:27:21;;;;;;;37.95;6.45;;;20.40;99.90;;;;;;5092352;28;20377;-74
2022/03/02 09:29:49;;;;;;;37.90;7.63;;;20.40;99.90;;;;;;5091773;28;20354;-73
2022/03/02 09:32:19;;;;;;;42.80;6.93;;;20.40;99.90;;;;;;5091599;28;20025;-73
2022/03/02 09:34:49;;;;;;;30.08;5.85;;;20.40;99.90;;;;;;5091377;28;20125;-74
2022/03/02 09:37:17;;;;;;;39.67;6.93;;;20.40;99.90;;;;;;5092208;28;20193;-74
2022/03/02 09:39:45;;;;;;;39.35;6.07;;;20.40;99.90;;;;;;5092020;28;20104;-74
2022/03/02 09:42:15;;;;;;;37.15;5.80;;;20.50;99.90;;;;;;5091905;28;20046;-75
2022/03/02 09:44:46;;;;;;;36.47;5.40;;;20.50;99.90;;;;;;5092022;28;20073;-73
2022/03/02 09:47:20;;;;;;;29.88;5.47;;;20.50;99.90;;;;;;5092333;28;20532;-73
2022/03/02 09:49:57;;;;;;;31.23;5.25;;;20.50;99.90;;;;;;5092240;28;20047;-74
2022/03/02 09:52:25;;;;;;;44.88;6.80;;;20.60;99.90;;;;;;5073755;28;20035;-74
2022/03/02 09:54:55;;;;;;;38.90;7.28;;;20.60;99.90;;;;;;5091870;28;20119;-72
2022/03/02 09:57:23;;;;;;;28.85;6.38;;;20.60;99.90;;;;;;5073899;28;20085;-73
2022/03/02 09:59:56;;;;;;;34.75;6.07;;;20.60;99.90;;;;;;5072944;28;20012;-75
2022/03/02 10:02:40;;;;;;;34.42;7.30;;;20.70;99.90;;;;;;5073928;28;20115;-74
2022/03/02 10:05:16;;;;;;;32.20;6.25;;;20.70;99.90;;;;;;5091979;28;20426;-75
2022/03/02 10:07:54;;;;;;;37.88;6.75;;;20.70;99.90;;;;;;5090776;28;20027;-74
2022/03/02 10:10:23;;;;;;;45.15;7.90;;;20.70;99.90;;;;;;5089588;28;20086;-75
2022/03/02 10:12:53;;;;;;;37.85;7.53;;;20.70;99.90;;;;;;5091453;28;20016;-74
2022/03/02 10:15:20;;;;;;;47.47;8.05;;;20.70;99.90;;;;;;5091236;28;20039;-74
2022/03/02 10:17:51;;;;;;;42.33;8.20;;;20.80;99.90;;;;;;5091365;28;20049;-73
2022/03/02 10:20:24;;;;;;;42.58;7.18;;;20.80;99.90;;;;;;5090128;28;20020;-74
2022/03/02 10:23:21;;;;;;;45.90;7.85;;;20.80;99.90;;;;;;5088006;28;20020;-72
2022/03/02 10:26:11;;;;;;;37.90;7.18;;;20.70;99.90;;;;;;5089926;28;20107;-73
2022/03/02 10:28:41;;;;;;;48.47;7.82;;;20.70;99.90;;;;;;5087495;28;20121;-74
2022/03/02 10:31:32;;;;;;;46.70;8.43;;;20.80;99.90;;;;;;5090962;28;20032;-74
2022/03/02 10:34:28;;;;;;;45.90;7.45;;;20.70;99.90;;;;;;5072816;28;20496;-72
2022/03/02 10:37:07;;;;;;;48.08;7.70;;;20.70;99.90;;;;;;5073126;28;20028;-74
2022/03/02 10:39:52;;;;;;;48.80;8.27;;;20.80;99.90;;;;;;5090867;28;20388;-75
2022/03/02 10:42:28;;;;;;;35.17;7.88;;;20.70;99.90;;;;;;5073079;28;20028;-72
2022/03/02 10:45:08;;;;;;;51.42;8.63;;;20.80;99.90;;;;;;5091438;28;20027;-72
2022/03/02 10:47:54;;;;;;;52.38;7.85;;;20.70;99.90;;;;;;5091650;28;20042;-73
2022/03/02 10:50:23;;;;;;;45.03;7.55;;;20.80;99.90;;;;;;5091279;28;20020;-72
2022/03/02 10:52:52;;;;;;;48.13;6.70;;;20.70;99.90;;;;;;5090802;28;20612;-73
2022/03/02 10:55:21;;;;;;;46.20;6.68;;;20.70;99.90;;;;;;5090952;28;20545;-72
2022/03/02 10:57:52;;;;;;;39.30;6.70;;;20.70;99.90;;;;;;5090165;28;20111;-75
2022/03/02 11:00:22;;;;;;;39.15;8.20;;;20.70;99.90;;;;;;5090766;28;20077;-73
2022/03/02 11:02:57;;;;;;;33.15;7.32;;;20.80;99.90;;;;;;5090898;28;20054;-72
2022/03/02 11:05:26;;;;;;;37.30;6.65;;;20.70;99.90;;;;;;5091295;28;20020;-73
2022/03/02 11:07:54;;;;;;;45.22;6.45;;;20.70;99.90;;;;;;5089883;28;20024;-73
2022/03/02 11:10:31;;;;;;;36.17;6.25;;;20.70;99.90;;;;;;5090171;28;20024;-73
2022/03/02 11:13:10;;;;;;;41.70;5.45;;;20.70;99.90;;;;;;5090987;28;20028;-72
2022/03/02 11:15:53;;;;;;;39.20;7.90;;;20.70;99.90;;;;;;5091047;28;20109;-72
2022/03/02 11:18:37;;;;;;;38.70;5.85;;;20.70;99.90;;;;;;5090658;28;20093;-73
2022/03/02 11:21:08;;;;;;;39.92;6.95;;;20.70;99.90;;;;;;5092470;28;20023;-74
2022/03/02 11:23:46;;;;;;;43.10;6.93;;;20.80;99.90;;;;;;5094481;28;20016;-73
2022/03/02 11:26:23;;;;;;;49.80;8.10;;;20.80;99.90;;;;;;5108445;28;20031;-72
2022/03/02 11:28:52;;;;;;;35.85;7.63;;;20.80;99.90;;;;;;5091972;28;20094;-74
2022/03/02 11:31:30;;;;;;;49.40;8.63;;;20.80;99.90;;;;;;5093148;28;20076;-72
2022/03/02 11:34:16;;;;;;;48.78;7.85;;;20.80;99.90;;;;;;5092549;28;20043;-72
2022/03/02 11:36:48;;;;;;;42.97;8.07;;;20.90;99.90;;;;;;5090733;28;20024;-74
2022/03/02 11:39:17;;;;;;;52.92;10.00;;;20.90;99.90;;;;;;5093749;28;20027;-72
2022/03/02 11:41:46;;;;;;;43.42;9.02;;;20.90;99.90;;;;;;5091274;28;20472;-72
2022/03/02 11:44:36;;;;;;;42.55;9.30;;;20.90;99.90;;;;;;5074910;28;20115;-72
2022/03/02 11:47:08;;;;;;;52.38;9.52;;;20.90;99.90;;;;;;5072620;28;20043;-72
2022/03/02 11:50:01;;;;;;;47.88;9.38;;;20.90;99.90;;;;;;5093324;28;20513;-72
2022/03/02 11:52:34;;;;;;;54.70;7.50;;;20.90;99.90;;;;;;5089722;28;20048;-72
2022/03/02 11:55:07;;;;;;;42.28;7.70;;;20.90;99.90;;;;;;5090013;28;20028;-72
2022/03/02 11:57:42;;;;;;;40.05;6.90;;;20.80;99.90;;;;;;5093139;28;20098;-72
2022/03/02 12:00:20;;;;;;;42.33;7.13;;;20.80;99.90;;;;;;5091309;28;20032;-72
2022/03/02 12:02:53;;;;;;;43.05;9.93;;;20.80;99.90;;;;;;5090848;28;20051;-70
2022/03/02 12:05:23;;;;;;;44.20;8.07;;;20.80;99.90;;;;;;5092402;28;20515;-72
2022/03/02 12:07:53;;;;;;;45.42;6.47;;;20.90;99.90;;;;;;5092990;28;20530;-71
2022/03/02 12:10:24;;;;;;;46.10;7.25;;;20.80;99.90;;;;;;5074356;28;20031;-73
2022/03/02 12:12:54;;;;;;;46.08;8.00;;;20.80;99.90;;;;;;5075021;28;20095;-73
2022/03/02 12:15:23;;;;;;;36.40;7.80;;;20.80;99.90;;;;;;5089880;28;20032;-74
2022/03/02 12:17:51;;;;;;;52.92;7.68;;;20.80;99.90;;;;;;5092605;28;20035;-72
2022/03/02 12:20:25;;;;;;;54.78;7.85;;;20.70;99.90;;;;;;5092784;28;20447;-72
2022/03/02 12:22:56;;;;;;;44.63;8.10;;;20.70;99.90;;;;;;5092831;28;20115;-73
2022/03/02 12:25:26;;;;;;;46.25;7.72;;;20.70;99.90;;;;;;5072303;28;20092;-72
2022/03/02 12:28:02;;;;;;;46.75;7.72;;;20.70;99.90;;;;;;5092073;28;20031;-72
2022/03/02 12:30:32;;;;;;;43.47;6.75;;;20.70;99.90;;;;;;5091405;28;20020;-72
2022/03/02 12:32:59;;;;;;;43.17;8.93;;;20.70;99.90;;;;;;5092419;28;20051;-72
2022/03/02 12:35:27;;;;;;;41.22;6.88;;;20.70;99.90;;;;;;5091984;28;20044;-72
2022/03/02 12:38:03;;;;;;;36.72;7.10;;;20.70;99.90;;;;;;5092359;28;20468;-73
2022/03/02 12:40:36;;;;;;;38.60;6.32;;;20.70;99.90;;;;;;5091015;28;20027;-72
2022/03/02 12:43:04;;;;;;;38.75;7.32;;;20.70;99.90;;;;;;5072020;28;20040;-75
2022/03/02 12:45:35;;;;;;;43.25;7.00;;;20.70;99.90;;;;;;5092459;28;20012;-72
2022/03/02 12:48:02;;;;;;;43.67;7.65;;;20.70;99.90;;;;;;5089352;28;20066;-72
2022/03/02 12:50:32;;;;;;;35.03;6.28;;;20.70;99.90;;;;;;5091743;28;20016;-72
2022/03/02 12:53:00;;;;;;;45.78;6.75;;;20.70;99.90;;;;;;5090356;28;20020;-72